sensor_id;sensor_type;location;lat;lon;timestamp;P1;durP1;ratioP1;P2;durP2;ratioP2
549;SDS011;20066;48.764;9.176;2022-09-24T00:01:28;18.03;;;7.17;;
549;SDS011;20066;48.764;9.176;2022-09-24T00:03:58;12.53;;;7.73;;
549;SDS011;20066;48.764;9.176;2022-09-24T00:06:28;10.23;;;6.33;;
549;SDS011;20066;48.764;9.176;2022-09-24T00:08:56;14.00;;;7.30;;
549;SDS011;20066;48.764;9.176;2022-09-24T00:11:25;10.30;;;6.50;;
549;SDS011;20066;48.764;9.176;2022-09-24T00:13:55;11.20;;;6.80;;
549;SDS011;20066;48.764;9.176;2022-09-24T00:16:25;11.83;;;7.53;;
549;SDS011;20066;48.764;9.176;2022-09-24T00:18:55;12.57;;;8.00;;
549;SDS011;20066;48.764;9.176;2022-09-24T00:21:26;10.60;;;7.17;;
549;SDS011;20066;48.764;9.176;2022-09-24T00:23:56;12.23;;;7.10;;
549;SDS011;20066;48.764;9.176;2022-09-24T00:26:25;11.70;;;6.67;;
549;SDS011;20066;48.764;9.176;2022-09-24T00:29:13;11.67;;;7.87;;
549;SDS011;20066;48.764;9.176;2022-09-24T00:31:43;11.80;;;6.97;;
549;SDS011;20066;48.764;9.176;2022-09-24T00:34:11;15.20;;;7.53;;
549;SDS011;20066;48.764;9.176;2022-09-24T00:36:39;10.27;;;6.93;;
549;SDS011;20066;48.764;9.176;2022-09-24T00:39:06;14.43;;;7.77;;
549;SDS011;20066;48.764;9.176;2022-09-24T00:41:35;16.20;;;7.07;;
549;SDS011;20066;48.764;9.176;2022-09-24T00:47:14;15.67;;;7.67;;
549;SDS011;20066;48.764;9.176;2022-09-24T00:49:51;12.90;;;7.20;;
549;SDS011;20066;48.764;9.176;2022-09-24T00:52:31;10.97;;;6.50;;
549;SDS011;20066;48.764;9.176;2022-09-24T00:55:00;10.73;;;6.63;;
549;SDS011;20066;48.764;9.176;2022-09-24T00:57:28;9.73;;;6.40;;
549;SDS011;20066;48.764;9.176;2022-09-24T00:59:57;11.93;;;6.73;;
549;SDS011;20066;48.764;9.176;2022-09-24T01:02:25;10.80;;;6.47;;
549;SDS011;20066;48.764;9.176;2022-09-24T01:04:53;9.33;;;6.30;;
549;SDS011;20066;48.764;9.176;2022-09-24T01:07:22;13.60;;;7.00;;
549;SDS011;20066;48.764;9.176;2022-09-24T01:09:50;12.23;;;6.23;;
549;SDS011;20066;48.764;9.176;2022-09-24T01:12:20;11.53;;;5.70;;
549;SDS011;20066;48.764;9.176;2022-09-24T01:15:06;10.93;;;5.70;;
549;SDS011;20066;48.764;9.176;2022-09-24T01:17:44;12.57;;;6.80;;
549;SDS011;20066;48.764;9.176;2022-09-24T01:20:24;13.23;;;7.20;;
549;SDS011;20066;48.764;9.176;2022-09-24T01:23:11;10.63;;;6.60;;
549;SDS011;20066;48.764;9.176;2022-09-24T01:26:03;14.30;;;7.33;;
549;SDS011;20066;48.764;9.176;2022-09-24T01:28:48;14.40;;;6.43;;
549;SDS011;20066;48.764;9.176;2022-09-24T01:31:34;11.17;;;7.63;;
549;SDS011;20066;48.764;9.176;2022-09-24T01:34:07;13.00;;;6.53;;
549;SDS011;20066;48.764;9.176;2022-09-24T01:36:40;10.70;;;7.13;;
549;SDS011;20066;48.764;9.176;2022-09-24T01:39:10;11.73;;;7.30;;
549;SDS011;20066;48.764;9.176;2022-09-24T01:41:40;12.60;;;7.10;;
549;SDS011;20066;48.764;9.176;2022-09-24T01:44:09;10.80;;;6.70;;
549;SDS011;20066;48.764;9.176;2022-09-24T01:46:39;11.97;;;7.03;;
549;SDS011;20066;48.764;9.176;2022-09-24T01:49:08;10.47;;;6.80;;
549;SDS011;20066;48.764;9.176;2022-09-24T01:51:36;10.73;;;6.73;;
549;SDS011;20066;48.764;9.176;2022-09-24T01:54:11;12.03;;;7.40;;
549;SDS011;20066;48.764;9.176;2022-09-24T01:56:46;14.40;;;7.90;;
549;SDS011;20066;48.764;9.176;2022-09-24T01:59:18;8.83;;;6.80;;
549;SDS011;20066;48.764;9.176;2022-09-24T02:01:54;10.83;;;7.00;;
549;SDS011;20066;48.764;9.176;2022-09-24T02:04:26;11.30;;;7.43;;
549;SDS011;20066;48.764;9.176;2022-09-24T02:06:56;15.63;;;8.33;;
549;SDS011;20066;48.764;9.176;2022-09-24T02:09:30;16.10;;;8.73;;
549;SDS011;20066;48.764;9.176;2022-09-24T02:12:00;15.53;;;8.17;;
549;SDS011;20066;48.764;9.176;2022-09-24T02:14:33;10.90;;;7.90;;
549;SDS011;20066;48.764;9.176;2022-09-24T02:17:07;10.87;;;8.00;;
549;SDS011;20066;48.764;9.176;2022-09-24T02:19:37;12.13;;;6.97;;
549;SDS011;20066;48.764;9.176;2022-09-24T02:22:06;17.23;;;7.30;;
549;SDS011;20066;48.764;9.176;2022-09-24T02:24:39;9.17;;;6.90;;
549;SDS011;20066;48.764;9.176;2022-09-24T02:27:11;14.33;;;7.80;;
549;SDS011;20066;48.764;9.176;2022-09-24T02:29:39;11.97;;;7.70;;
549;SDS011;20066;48.764;9.176;2022-09-24T02:32:09;14.50;;;7.90;;
549;SDS011;20066;48.764;9.176;2022-09-24T02:34:42;9.80;;;7.00;;
549;SDS011;20066;48.764;9.176;2022-09-24T02:37:13;13.30;;;7.50;;
549;SDS011;20066;48.764;9.176;2022-09-24T02:39:42;11.67;;;7.10;;
549;SDS011;20066;48.764;9.176;2022-09-24T02:42:11;11.83;;;6.63;;
549;SDS011;20066;48.764;9.176;2022-09-24T02:44:40;12.80;;;8.13;;
549;SDS011;20066;48.764;9.176;2022-09-24T02:47:09;12.10;;;8.20;;
549;SDS011;20066;48.764;9.176;2022-09-24T02:49:37;13.73;;;7.37;;
549;SDS011;20066;48.764;9.176;2022-09-24T02:52:05;11.10;;;7.67;;
549;SDS011;20066;48.764;9.176;2022-09-24T02:54:32;16.43;;;8.03;;
549;SDS011;20066;48.764;9.176;2022-09-24T02:57:00;17.10;;;8.20;;
549;SDS011;20066;48.764;9.176;2022-09-24T02:59:28;17.30;;;8.90;;
549;SDS011;20066;48.764;9.176;2022-09-24T03:01:55;17.27;;;7.67;;
549;SDS011;20066;48.764;9.176;2022-09-24T03:04:24;12.30;;;7.80;;
549;SDS011;20066;48.764;9.176;2022-09-24T03:06:54;11.30;;;7.30;;
549;SDS011;20066;48.764;9.176;2022-09-24T03:09:22;9.90;;;7.87;;
549;SDS011;20066;48.764;9.176;2022-09-24T03:11:49;11.13;;;7.10;;
549;SDS011;20066;48.764;9.176;2022-09-24T03:14:17;12.10;;;7.80;;
549;SDS011;20066;48.764;9.176;2022-09-24T03:16:45;13.63;;;8.10;;
549;SDS011;20066;48.764;9.176;2022-09-24T03:19:12;13.33;;;7.47;;
549;SDS011;20066;48.764;9.176;2022-09-24T03:21:41;15.83;;;7.87;;
549;SDS011;20066;48.764;9.176;2022-09-24T03:24:09;14.90;;;7.63;;
549;SDS011;20066;48.764;9.176;2022-09-24T03:26:37;11.37;;;7.73;;
549;SDS011;20066;48.764;9.176;2022-09-24T03:29:05;11.87;;;7.83;;
549;SDS011;20066;48.764;9.176;2022-09-24T03:31:32;10.63;;;7.50;;
549;SDS011;20066;48.764;9.176;2022-09-24T03:33:59;17.63;;;9.00;;
549;SDS011;20066;48.764;9.176;2022-09-24T03:36:27;15.60;;;8.40;;
549;SDS011;20066;48.764;9.176;2022-09-24T03:38:56;16.03;;;7.93;;
549;SDS011;20066;48.764;9.176;2022-09-24T03:41:24;12.30;;;7.77;;
549;SDS011;20066;48.764;9.176;2022-09-24T03:43:53;14.63;;;7.70;;
549;SDS011;20066;48.764;9.176;2022-09-24T03:46:21;12.33;;;7.70;;
549;SDS011;20066;48.764;9.176;2022-09-24T03:48:55;15.10;;;7.60;;
549;SDS011;20066;48.764;9.176;2022-09-24T03:51:24;11.37;;;7.37;;
549;SDS011;20066;48.764;9.176;2022-09-24T03:53:52;15.70;;;9.10;;
549;SDS011;20066;48.764;9.176;2022-09-24T03:56:21;11.40;;;7.33;;
549;SDS011;20066;48.764;9.176;2022-09-24T03:58:49;9.30;;;7.00;;
549;SDS011;20066;48.764;9.176;2022-09-24T04:01:17;12.00;;;7.93;;
549;SDS011;20066;48.764;9.176;2022-09-24T04:03:46;17.47;;;7.80;;
549;SDS011;20066;48.764;9.176;2022-09-24T04:06:13;14.70;;;8.00;;
549;SDS011;20066;48.764;9.176;2022-09-24T04:08:41;14.20;;;8.60;;
549;SDS011;20066;48.764;9.176;2022-09-24T04:11:09;15.10;;;8.60;;
549;SDS011;20066;48.764;9.176;2022-09-24T04:13:38;15.10;;;8.53;;
549;SDS011;20066;48.764;9.176;2022-09-24T04:16:05;10.93;;;8.00;;
549;SDS011;20066;48.764;9.176;2022-09-24T04:18:33;10.50;;;7.63;;
549;SDS011;20066;48.764;9.176;2022-09-24T04:21:04;13.07;;;7.70;;
549;SDS011;20066;48.764;9.176;2022-09-24T04:23:32;13.47;;;8.37;;
549;SDS011;20066;48.764;9.176;2022-09-24T04:26:01;14.37;;;7.30;;
549;SDS011;20066;48.764;9.176;2022-09-24T04:28:29;11.30;;;6.53;;
549;SDS011;20066;48.764;9.176;2022-09-24T04:30:59;14.47;;;7.70;;
549;SDS011;20066;48.764;9.176;2022-09-24T04:33:26;13.40;;;8.40;;
549;SDS011;20066;48.764;9.176;2022-09-24T04:35:54;17.73;;;8.77;;
549;SDS011;20066;48.764;9.176;2022-09-24T04:38:22;13.50;;;8.50;;
549;SDS011;20066;48.764;9.176;2022-09-24T04:40:50;13.70;;;8.50;;
549;SDS011;20066;48.764;9.176;2022-09-24T04:43:18;14.80;;;8.20;;
549;SDS011;20066;48.764;9.176;2022-09-24T04:45:46;12.43;;;8.83;;
549;SDS011;20066;48.764;9.176;2022-09-24T04:48:15;12.10;;;7.57;;
549;SDS011;20066;48.764;9.176;2022-09-24T04:50:43;14.80;;;8.13;;
549;SDS011;20066;48.764;9.176;2022-09-24T04:53:11;15.17;;;8.83;;
549;SDS011;20066;48.764;9.176;2022-09-24T04:55:39;11.83;;;7.37;;
549;SDS011;20066;48.764;9.176;2022-09-24T04:58:07;11.90;;;7.47;;
549;SDS011;20066;48.764;9.176;2022-09-24T05:00:35;11.57;;;7.00;;
549;SDS011;20066;48.764;9.176;2022-09-24T05:03:03;11.23;;;7.40;;
549;SDS011;20066;48.764;9.176;2022-09-24T05:05:33;16.93;;;8.07;;
549;SDS011;20066;48.764;9.176;2022-09-24T05:08:01;14.40;;;8.23;;
549;SDS011;20066;48.764;9.176;2022-09-24T05:10:30;11.07;;;7.20;;
549;SDS011;20066;48.764;9.176;2022-09-24T05:12:58;11.30;;;7.57;;
549;SDS011;20066;48.764;9.176;2022-09-24T05:15:27;11.80;;;7.90;;
549;SDS011;20066;48.764;9.176;2022-09-24T05:17:55;22.40;;;7.33;;
549;SDS011;20066;48.764;9.176;2022-09-24T05:20:23;12.00;;;7.47;;
549;SDS011;20066;48.764;9.176;2022-09-24T05:22:52;11.20;;;7.30;;
549;SDS011;20066;48.764;9.176;2022-09-24T05:25:20;12.50;;;7.13;;
549;SDS011;20066;48.764;9.176;2022-09-24T05:27:49;11.57;;;7.03;;
549;SDS011;20066;48.764;9.176;2022-09-24T05:30:16;14.27;;;7.90;;
549;SDS011;20066;48.764;9.176;2022-09-24T05:32:45;9.37;;;7.07;;
549;SDS011;20066;48.764;9.176;2022-09-24T05:35:17;11.53;;;7.00;;
549;SDS011;20066;48.764;9.176;2022-09-24T05:37:45;13.10;;;8.10;;
549;SDS011;20066;48.764;9.176;2022-09-24T05:40:16;16.40;;;7.03;;
549;SDS011;20066;48.764;9.176;2022-09-24T05:43:01;12.33;;;6.60;;
549;SDS011;20066;48.764;9.176;2022-09-24T05:45:30;9.87;;;7.10;;
549;SDS011;20066;48.764;9.176;2022-09-24T05:47:58;10.93;;;7.37;;
549;SDS011;20066;48.764;9.176;2022-09-24T05:50:26;15.83;;;7.10;;
549;SDS011;20066;48.764;9.176;2022-09-24T05:52:54;9.77;;;6.67;;
549;SDS011;20066;48.764;9.176;2022-09-24T05:55:23;11.53;;;7.90;;
549;SDS011;20066;48.764;9.176;2022-09-24T05:58:00;12.77;;;7.10;;
549;SDS011;20066;48.764;9.176;2022-09-24T06:00:29;11.83;;;6.90;;
549;SDS011;20066;48.764;9.176;2022-09-24T06:03:00;13.50;;;7.00;;
549;SDS011;20066;48.764;9.176;2022-09-24T06:05:30;11.23;;;7.80;;
549;SDS011;20066;48.764;9.176;2022-09-24T06:07:59;14.13;;;7.87;;
549;SDS011;20066;48.764;9.176;2022-09-24T06:10:28;15.60;;;7.70;;
549;SDS011;20066;48.764;9.176;2022-09-24T06:12:56;14.97;;;7.30;;
549;SDS011;20066;48.764;9.176;2022-09-24T06:15:24;11.27;;;8.23;;
549;SDS011;20066;48.764;9.176;2022-09-24T06:17:52;16.60;;;8.70;;
549;SDS011;20066;48.764;9.176;2022-09-24T06:20:20;15.60;;;8.60;;
549;SDS011;20066;48.764;9.176;2022-09-24T06:22:49;13.20;;;8.10;;
549;SDS011;20066;48.764;9.176;2022-09-24T06:25:16;13.07;;;7.97;;
549;SDS011;20066;48.764;9.176;2022-09-24T06:27:45;15.93;;;9.50;;
549;SDS011;20066;48.764;9.176;2022-09-24T06:30:23;13.77;;;8.60;;
549;SDS011;20066;48.764;9.176;2022-09-24T06:32:51;13.93;;;8.40;;
549;SDS011;20066;48.764;9.176;2022-09-24T06:35:18;19.97;;;9.57;;
549;SDS011;20066;48.764;9.176;2022-09-24T06:37:46;15.53;;;9.23;;
549;SDS011;20066;48.764;9.176;2022-09-24T06:40:15;14.17;;;8.50;;
549;SDS011;20066;48.764;9.176;2022-09-24T06:42:51;15.90;;;8.57;;
549;SDS011;20066;48.764;9.176;2022-09-24T06:45:26;13.00;;;8.30;;
549;SDS011;20066;48.764;9.176;2022-09-24T06:48:00;16.43;;;8.60;;
549;SDS011;20066;48.764;9.176;2022-09-24T06:50:31;11.67;;;8.30;;
549;SDS011;20066;48.764;9.176;2022-09-24T06:53:03;21.20;;;9.13;;
549;SDS011;20066;48.764;9.176;2022-09-24T06:55:32;12.30;;;8.20;;
549;SDS011;20066;48.764;9.176;2022-09-24T06:58:02;16.13;;;8.27;;
549;SDS011;20066;48.764;9.176;2022-09-24T07:00:31;16.90;;;8.70;;
549;SDS011;20066;48.764;9.176;2022-09-24T07:03:00;14.20;;;9.23;;
549;SDS011;20066;48.764;9.176;2022-09-24T07:05:27;18.33;;;8.20;;
549;SDS011;20066;48.764;9.176;2022-09-24T07:07:55;13.87;;;8.73;;
549;SDS011;20066;48.764;9.176;2022-09-24T07:10:23;14.10;;;7.80;;
549;SDS011;20066;48.764;9.176;2022-09-24T07:12:54;13.00;;;8.70;;
549;SDS011;20066;48.764;9.176;2022-09-24T07:15:23;10.90;;;7.67;;
549;SDS011;20066;48.764;9.176;2022-09-24T07:17:53;12.30;;;8.53;;
549;SDS011;20066;48.764;9.176;2022-09-24T07:20:21;12.20;;;7.70;;
549;SDS011;20066;48.764;9.176;2022-09-24T07:22:49;16.03;;;8.00;;
549;SDS011;20066;48.764;9.176;2022-09-24T07:25:17;17.00;;;8.70;;
549;SDS011;20066;48.764;9.176;2022-09-24T07:27:45;11.10;;;7.83;;
549;SDS011;20066;48.764;9.176;2022-09-24T07:30:13;15.20;;;8.53;;
549;SDS011;20066;48.764;9.176;2022-09-24T07:32:42;12.60;;;8.57;;
549;SDS011;20066;48.764;9.176;2022-09-24T07:35:10;13.60;;;7.87;;
549;SDS011;20066;48.764;9.176;2022-09-24T07:37:38;19.73;;;8.83;;
549;SDS011;20066;48.764;9.176;2022-09-24T07:40:08;11.57;;;8.70;;
549;SDS011;20066;48.764;9.176;2022-09-24T07:42:44;17.23;;;8.80;;
549;SDS011;20066;48.764;9.176;2022-09-24T07:45:13;14.57;;;9.40;;
549;SDS011;20066;48.764;9.176;2022-09-24T07:47:43;12.03;;;8.63;;
549;SDS011;20066;48.764;9.176;2022-09-24T07:50:11;16.13;;;8.80;;
549;SDS011;20066;48.764;9.176;2022-09-24T07:52:39;16.07;;;8.60;;
549;SDS011;20066;48.764;9.176;2022-09-24T07:55:07;13.33;;;8.67;;
549;SDS011;20066;48.764;9.176;2022-09-24T07:57:35;13.17;;;8.50;;
549;SDS011;20066;48.764;9.176;2022-09-24T08:00:02;13.57;;;9.00;;
549;SDS011;20066;48.764;9.176;2022-09-24T08:02:30;14.50;;;8.90;;
549;SDS011;20066;48.764;9.176;2022-09-24T08:05:00;13.50;;;8.57;;
549;SDS011;20066;48.764;9.176;2022-09-24T08:07:27;15.53;;;9.40;;
549;SDS011;20066;48.764;9.176;2022-09-24T08:09:55;17.03;;;8.60;;
549;SDS011;20066;48.764;9.176;2022-09-24T08:12:23;13.53;;;7.90;;
549;SDS011;20066;48.764;9.176;2022-09-24T08:14:52;14.03;;;8.33;;
549;SDS011;20066;48.764;9.176;2022-09-24T08:17:20;15.03;;;8.87;;
549;SDS011;20066;48.764;9.176;2022-09-24T08:19:48;16.67;;;7.67;;
549;SDS011;20066;48.764;9.176;2022-09-24T08:22:18;13.70;;;8.47;;
549;SDS011;20066;48.764;9.176;2022-09-24T08:24:46;12.80;;;8.10;;
549;SDS011;20066;48.764;9.176;2022-09-24T08:27:14;13.83;;;8.37;;
549;SDS011;20066;48.764;9.176;2022-09-24T08:29:42;16.23;;;8.80;;
549;SDS011;20066;48.764;9.176;2022-09-24T08:32:10;11.30;;;7.97;;
549;SDS011;20066;48.764;9.176;2022-09-24T08:34:38;14.47;;;7.50;;
549;SDS011;20066;48.764;9.176;2022-09-24T08:37:06;11.90;;;7.63;;
549;SDS011;20066;48.764;9.176;2022-09-24T08:39:36;16.90;;;10.40;;
549;SDS011;20066;48.764;9.176;2022-09-24T08:42:04;16.17;;;10.33;;
549;SDS011;20066;48.764;9.176;2022-09-24T08:44:38;18.17;;;11.17;;
549;SDS011;20066;48.764;9.176;2022-09-24T08:47:31;16.00;;;10.17;;
549;SDS011;20066;48.764;9.176;2022-09-24T08:50:07;19.77;;;10.63;;
549;SDS011;20066;48.764;9.176;2022-09-24T08:55:41;17.57;;;9.90;;
549;SDS011;20066;48.764;9.176;2022-09-24T08:58:21;11.53;;;6.33;;
549;SDS011;20066;48.764;9.176;2022-09-24T09:00:56;11.43;;;6.83;;
549;SDS011;20066;48.764;9.176;2022-09-24T09:03:29;12.33;;;8.33;;
549;SDS011;20066;48.764;9.176;2022-09-24T09:06:03;11.90;;;6.73;;
549;SDS011;20066;48.764;9.176;2022-09-24T09:08:39;10.70;;;7.53;;
549;SDS011;20066;48.764;9.176;2022-09-24T09:11:33;10.40;;;6.70;;
549;SDS011;20066;48.764;9.176;2022-09-24T09:14:05;7.43;;;4.57;;
549;SDS011;20066;48.764;9.176;2022-09-24T09:16:42;6.20;;;4.10;;
549;SDS011;20066;48.764;9.176;2022-09-24T09:19:14;5.00;;;3.03;;
549;SDS011;20066;48.764;9.176;2022-09-24T09:21:44;6.57;;;3.43;;
549;SDS011;20066;48.764;9.176;2022-09-24T09:24:19;8.43;;;3.37;;
549;SDS011;20066;48.764;9.176;2022-09-24T09:26:51;7.33;;;3.60;;
549;SDS011;20066;48.764;9.176;2022-09-24T09:29:21;5.37;;;3.30;;
549;SDS011;20066;48.764;9.176;2022-09-24T09:31:56;5.90;;;3.70;;
549;SDS011;20066;48.764;9.176;2022-09-24T09:34:41;5.40;;;3.67;;
549;SDS011;20066;48.764;9.176;2022-09-24T09:37:21;6.57;;;4.03;;
549;SDS011;20066;48.764;9.176;2022-09-24T09:39:58;4.80;;;3.30;;
549;SDS011;20066;48.764;9.176;2022-09-24T09:42:37;4.30;;;3.37;;
549;SDS011;20066;48.764;9.176;2022-09-24T09:45:14;9.83;;;3.53;;
549;SDS011;20066;48.764;9.176;2022-09-24T09:47:54;7.47;;;4.03;;
549;SDS011;20066;48.764;9.176;2022-09-24T09:50:25;5.27;;;3.63;;
549;SDS011;20066;48.764;9.176;2022-09-24T09:52:54;6.03;;;3.50;;
549;SDS011;20066;48.764;9.176;2022-09-24T09:55:23;6.83;;;3.87;;
549;SDS011;20066;48.764;9.176;2022-09-24T09:57:57;7.00;;;3.60;;
549;SDS011;20066;48.764;9.176;2022-09-24T10:00:36;5.77;;;3.77;;
549;SDS011;20066;48.764;9.176;2022-09-24T10:03:06;7.23;;;4.17;;
549;SDS011;20066;48.764;9.176;2022-09-24T10:05:50;8.37;;;3.60;;
549;SDS011;20066;48.764;9.176;2022-09-24T10:08:20;7.03;;;4.20;;
549;SDS011;20066;48.764;9.176;2022-09-24T10:10:52;8.90;;;4.03;;
549;SDS011;20066;48.764;9.176;2022-09-24T10:13:23;10.43;;;4.47;;
549;SDS011;20066;48.764;9.176;2022-09-24T10:15:51;6.07;;;4.07;;
549;SDS011;20066;48.764;9.176;2022-09-24T10:18:25;7.30;;;4.53;;
549;SDS011;20066;48.764;9.176;2022-09-24T10:20:56;6.37;;;4.17;;
549;SDS011;20066;48.764;9.176;2022-09-24T10:23:31;9.00;;;4.80;;
549;SDS011;20066;48.764;9.176;2022-09-24T10:26:03;9.00;;;4.50;;
549;SDS011;20066;48.764;9.176;2022-09-24T10:28:33;6.53;;;4.17;;
549;SDS011;20066;48.764;9.176;2022-09-24T10:31:23;6.43;;;4.20;;
549;SDS011;20066;48.764;9.176;2022-09-24T10:33:55;5.10;;;3.70;;
549;SDS011;20066;48.764;9.176;2022-09-24T10:36:25;5.23;;;3.37;;
549;SDS011;20066;48.764;9.176;2022-09-24T10:39:01;7.40;;;3.60;;
549;SDS011;20066;48.764;9.176;2022-09-24T10:41:35;4.93;;;2.80;;
549;SDS011;20066;48.764;9.176;2022-09-24T10:44:07;4.87;;;3.10;;
549;SDS011;20066;48.764;9.176;2022-09-24T10:46:41;9.70;;;2.90;;
549;SDS011;20066;48.764;9.176;2022-09-24T10:49:23;8.53;;;4.00;;
549;SDS011;20066;48.764;9.176;2022-09-24T10:52:01;4.53;;;2.40;;
549;SDS011;20066;48.764;9.176;2022-09-24T10:54:41;5.37;;;3.20;;
549;SDS011;20066;48.764;9.176;2022-09-24T10:57:19;8.07;;;3.37;;
549;SDS011;20066;48.764;9.176;2022-09-24T10:59:58;6.87;;;3.67;;
549;SDS011;20066;48.764;9.176;2022-09-24T11:05:36;48.57;;;8.83;;
549;SDS011;20066;48.764;9.176;2022-09-24T11:08:14;8.30;;;4.10;;
549;SDS011;20066;48.764;9.176;2022-09-24T11:11:04;10.63;;;3.40;;
549;SDS011;20066;48.764;9.176;2022-09-24T11:13:39;6.90;;;3.70;;
549;SDS011;20066;48.764;9.176;2022-09-24T11:16:22;6.77;;;3.43;;
549;SDS011;20066;48.764;9.176;2022-09-24T11:19:14;8.10;;;3.70;;
549;SDS011;20066;48.764;9.176;2022-09-24T11:21:55;5.70;;;3.80;;
549;SDS011;20066;48.764;9.176;2022-09-24T11:24:38;7.27;;;3.40;;
549;SDS011;20066;48.764;9.176;2022-09-24T11:27:18;6.97;;;3.77;;
549;SDS011;20066;48.764;9.176;2022-09-24T11:30:05;7.80;;;4.10;;
549;SDS011;20066;48.764;9.176;2022-09-24T11:32:40;5.77;;;3.27;;
549;SDS011;20066;48.764;9.176;2022-09-24T11:35:23;9.00;;;3.77;;
549;SDS011;20066;48.764;9.176;2022-09-24T11:38:02;6.07;;;3.33;;
549;SDS011;20066;48.764;9.176;2022-09-24T11:40:41;7.73;;;3.57;;
549;SDS011;20066;48.764;9.176;2022-09-24T11:43:29;5.50;;;3.10;;
549;SDS011;20066;48.764;9.176;2022-09-24T11:46:15;6.27;;;3.23;;
549;SDS011;20066;48.764;9.176;2022-09-24T11:49:02;5.50;;;3.57;;
549;SDS011;20066;48.764;9.176;2022-09-24T11:51:44;9.13;;;4.00;;
549;SDS011;20066;48.764;9.176;2022-09-24T11:54:19;7.23;;;3.83;;
549;SDS011;20066;48.764;9.176;2022-09-24T11:56:53;5.80;;;4.00;;
549;SDS011;20066;48.764;9.176;2022-09-24T11:59:30;5.90;;;3.83;;
549;SDS011;20066;48.764;9.176;2022-09-24T12:02:04;9.50;;;4.60;;
549;SDS011;20066;48.764;9.176;2022-09-24T12:04:45;8.23;;;4.67;;
549;SDS011;20066;48.764;9.176;2022-09-24T12:07:21;10.00;;;4.47;;
549;SDS011;20066;48.764;9.176;2022-09-24T12:09:56;6.30;;;4.37;;
549;SDS011;20066;48.764;9.176;2022-09-24T12:12:28;10.27;;;4.57;;
549;SDS011;20066;48.764;9.176;2022-09-24T12:15:00;20.53;;;5.27;;
549;SDS011;20066;48.764;9.176;2022-09-24T12:17:33;6.80;;;4.47;;
549;SDS011;20066;48.764;9.176;2022-09-24T12:20:07;8.20;;;4.70;;
549;SDS011;20066;48.764;9.176;2022-09-24T12:22:45;8.80;;;4.57;;
549;SDS011;20066;48.764;9.176;2022-09-24T12:25:15;9.03;;;4.80;;
549;SDS011;20066;48.764;9.176;2022-09-24T12:27:43;7.93;;;4.43;;
549;SDS011;20066;48.764;9.176;2022-09-24T12:30:17;7.20;;;4.90;;
549;SDS011;20066;48.764;9.176;2022-09-24T12:33:16;6.30;;;4.57;;
549;SDS011;20066;48.764;9.176;2022-09-24T12:35:56;7.00;;;4.80;;
549;SDS011;20066;48.764;9.176;2022-09-24T12:38:30;8.57;;;4.90;;
549;SDS011;20066;48.764;9.176;2022-09-24T12:43:56;8.83;;;5.10;;
549;SDS011;20066;48.764;9.176;2022-09-24T12:46:28;6.27;;;4.90;;
549;SDS011;20066;48.764;9.176;2022-09-24T12:48:59;10.60;;;5.87;;
549;SDS011;20066;48.764;9.176;2022-09-24T12:51:35;7.43;;;5.23;;
549;SDS011;20066;48.764;9.176;2022-09-24T12:54:05;8.13;;;5.67;;
549;SDS011;20066;48.764;9.176;2022-09-24T12:56:41;7.60;;;5.20;;
549;SDS011;20066;48.764;9.176;2022-09-24T12:59:22;9.40;;;5.70;;
549;SDS011;20066;48.764;9.176;2022-09-24T13:01:51;7.63;;;4.90;;
549;SDS011;20066;48.764;9.176;2022-09-24T13:04:26;9.73;;;5.27;;
549;SDS011;20066;48.764;9.176;2022-09-24T13:06:56;8.50;;;5.20;;
549;SDS011;20066;48.764;9.176;2022-09-24T13:09:34;8.13;;;5.03;;
549;SDS011;20066;48.764;9.176;2022-09-24T13:12:16;6.93;;;4.63;;
549;SDS011;20066;48.764;9.176;2022-09-24T13:14:49;8.63;;;5.23;;
549;SDS011;20066;48.764;9.176;2022-09-24T13:17:22;10.30;;;5.53;;
549;SDS011;20066;48.764;9.176;2022-09-24T13:19:55;7.60;;;4.80;;
549;SDS011;20066;48.764;9.176;2022-09-24T13:22:26;8.30;;;5.27;;
549;SDS011;20066;48.764;9.176;2022-09-24T13:27:58;7.33;;;4.77;;
549;SDS011;20066;48.764;9.176;2022-09-24T13:30:32;7.00;;;4.80;;
549;SDS011;20066;48.764;9.176;2022-09-24T13:33:08;8.60;;;4.73;;
549;SDS011;20066;48.764;9.176;2022-09-24T13:35:46;9.27;;;6.07;;
549;SDS011;20066;48.764;9.176;2022-09-24T13:38:28;9.87;;;6.50;;
549;SDS011;20066;48.764;9.176;2022-09-24T13:41:00;11.50;;;6.77;;
549;SDS011;20066;48.764;9.176;2022-09-24T13:43:38;16.23;;;8.50;;
549;SDS011;20066;48.764;9.176;2022-09-24T13:46:14;12.07;;;7.43;;
549;SDS011;20066;48.764;9.176;2022-09-24T13:48:46;13.13;;;7.83;;
549;SDS011;20066;48.764;9.176;2022-09-24T13:51:17;17.77;;;8.67;;
549;SDS011;20066;48.764;9.176;2022-09-24T13:53:51;10.60;;;7.97;;
549;SDS011;20066;48.764;9.176;2022-09-24T13:56:23;13.00;;;8.23;;
549;SDS011;20066;48.764;9.176;2022-09-24T13:58:51;14.27;;;8.77;;
549;SDS011;20066;48.764;9.176;2022-09-24T14:01:34;12.30;;;8.63;;
549;SDS011;20066;48.764;9.176;2022-09-24T14:04:11;11.17;;;7.90;;
549;SDS011;20066;48.764;9.176;2022-09-24T14:06:43;15.87;;;6.70;;
549;SDS011;20066;48.764;9.176;2022-09-24T14:09:15;11.20;;;7.60;;
549;SDS011;20066;48.764;9.176;2022-09-24T14:11:52;11.87;;;7.10;;
549;SDS011;20066;48.764;9.176;2022-09-24T14:14:22;13.93;;;7.40;;
549;SDS011;20066;48.764;9.176;2022-09-24T14:16:51;15.63;;;8.37;;
549;SDS011;20066;48.764;9.176;2022-09-24T14:19:21;11.03;;;7.50;;
549;SDS011;20066;48.764;9.176;2022-09-24T14:21:49;14.50;;;8.33;;
549;SDS011;20066;48.764;9.176;2022-09-24T14:24:22;14.33;;;8.50;;
549;SDS011;20066;48.764;9.176;2022-09-24T14:26:54;10.90;;;8.00;;
549;SDS011;20066;48.764;9.176;2022-09-24T14:29:26;12.80;;;7.47;;
549;SDS011;20066;48.764;9.176;2022-09-24T14:31:56;13.13;;;8.10;;
549;SDS011;20066;48.764;9.176;2022-09-24T14:34:26;14.23;;;7.83;;
549;SDS011;20066;48.764;9.176;2022-09-24T14:37:05;13.47;;;8.43;;
549;SDS011;20066;48.764;9.176;2022-09-24T14:39:39;9.77;;;7.27;;
549;SDS011;20066;48.764;9.176;2022-09-24T14:42:08;11.97;;;7.97;;
549;SDS011;20066;48.764;9.176;2022-09-24T14:44:40;10.90;;;7.33;;
549;SDS011;20066;48.764;9.176;2022-09-24T14:47:24;10.37;;;7.53;;
549;SDS011;20066;48.764;9.176;2022-09-24T14:49:54;10.73;;;7.40;;
549;SDS011;20066;48.764;9.176;2022-09-24T14:52:24;10.97;;;8.73;;
549;SDS011;20066;48.764;9.176;2022-09-24T14:55:02;13.90;;;8.80;;
549;SDS011;20066;48.764;9.176;2022-09-24T14:57:40;15.13;;;9.20;;
549;SDS011;20066;48.764;9.176;2022-09-24T15:00:18;15.23;;;9.50;;
549;SDS011;20066;48.764;9.176;2022-09-24T15:02:50;14.30;;;8.00;;
549;SDS011;20066;48.764;9.176;2022-09-24T15:05:23;15.13;;;8.40;;
549;SDS011;20066;48.764;9.176;2022-09-24T15:08:03;14.60;;;8.77;;
549;SDS011;20066;48.764;9.176;2022-09-24T15:10:38;13.60;;;8.20;;
549;SDS011;20066;48.764;9.176;2022-09-24T15:13:13;14.27;;;8.60;;
549;SDS011;20066;48.764;9.176;2022-09-24T15:15:42;13.20;;;8.20;;
549;SDS011;20066;48.764;9.176;2022-09-24T15:18:10;11.60;;;7.87;;
549;SDS011;20066;48.764;9.176;2022-09-24T15:20:42;9.13;;;6.60;;
549;SDS011;20066;48.764;9.176;2022-09-24T15:23:10;12.37;;;6.77;;
549;SDS011;20066;48.764;9.176;2022-09-24T15:25:40;12.03;;;8.30;;
549;SDS011;20066;48.764;9.176;2022-09-24T15:28:10;11.03;;;7.87;;
549;SDS011;20066;48.764;9.176;2022-09-24T15:30:39;10.57;;;7.50;;
549;SDS011;20066;48.764;9.176;2022-09-24T15:33:09;9.27;;;7.17;;
549;SDS011;20066;48.764;9.176;2022-09-24T15:35:37;14.03;;;8.70;;
549;SDS011;20066;48.764;9.176;2022-09-24T15:38:07;19.80;;;10.07;;
549;SDS011;20066;48.764;9.176;2022-09-24T15:40:42;13.47;;;9.20;;
549;SDS011;20066;48.764;9.176;2022-09-24T15:45:56;14.63;;;8.70;;
549;SDS011;20066;48.764;9.176;2022-09-24T15:48:24;12.50;;;8.33;;
549;SDS011;20066;48.764;9.176;2022-09-24T15:50:52;16.03;;;9.70;;
549;SDS011;20066;48.764;9.176;2022-09-24T15:53:21;13.90;;;8.30;;